createdAt,value
2019-03-11T00:07:16.227Z,4.19
2019-03-11T00:17:21.161Z,3.81
2019-03-11T00:27:25.862Z,3.62
2019-03-11T00:37:32.035Z,3.19
2019-03-11T00:47:37.278Z,3.12
2019-03-11T00:57:41.203Z,2.94
2019-03-11T01:07:45.794Z,3.12
2019-03-11T01:17:50.336Z,2.69
2019-03-11T01:27:54.163Z,2.62
2019-03-11T01:37:58.996Z,2.31
2019-03-11T01:48:03.163Z,2.50
2019-03-11T01:58:07.661Z,2.25
2019-03-11T02:08:11.288Z,1.81
2019-03-11T02:18:15.147Z,2.12
2019-03-11T02:28:20.311Z,2.31
2019-03-11T02:38:24.247Z,2.19
2019-03-11T02:48:28.252Z,2.31
2019-03-11T02:58:33.039Z,2.69
2019-03-11T03:08:38.275Z,2.50
2019-03-11T03:18:42.242Z,2.75
2019-03-11T03:28:46.704Z,2.69
2019-03-11T03:38:50.310Z,2.62
2019-03-11T03:48:54.128Z,2.50
2019-03-11T03:58:58.151Z,2.87
2019-03-11T04:09:02.214Z,2.94
2019-03-11T04:19:07.291Z,2.75
2019-03-11T04:29:11.216Z,2.81
2019-03-11T04:39:16.651Z,2.69
2019-03-11T04:49:20.255Z,2.37
2019-03-11T04:59:24.210Z,2.37
2019-03-11T05:09:28.649Z,2.37
2019-03-11T05:19:32.225Z,2.56
2019-03-11T05:29:36.140Z,2.62
2019-03-11T05:39:40.646Z,2.69
2019-03-11T05:49:45.251Z,2.94
2019-03-11T05:59:49.117Z,3.06
2019-03-11T06:09:53.103Z,3.25
2019-03-11T06:19:59.317Z,3.19
2019-03-11T06:30:04.644Z,2.44
2019-03-11T06:40:10.048Z,2.44
2019-03-11T06:50:17.470Z,2.81
2019-03-11T07:00:21.394Z,2.94
2019-03-11T07:10:25.087Z,3.31
2019-03-11T07:20:29.646Z,3.62
2019-03-11T07:30:34.278Z,3.62
2019-03-11T07:40:38.145Z,4.06
2019-03-11T07:50:44.222Z,4.12
2019-03-11T08:00:53.836Z,4.37
2019-03-11T08:10:54.110Z,4.56
2019-03-11T08:20:58.086Z,4.37
2019-03-11T08:31:02.630Z,4.56
2019-03-11T08:41:07.265Z,4.69
2019-03-11T08:51:11.083Z,4.69
2019-03-11T09:01:15.947Z,5.19
2019-03-11T09:11:20.628Z,5.37
2019-03-11T09:21:25.219Z,5.12
2019-03-11T09:31:29.650Z,5.00
2019-03-11T09:41:34.290Z,6.00
2019-03-11T09:51:38.132Z,6.37
2019-03-11T10:01:42.089Z,6.37
2019-03-11T10:11:46.279Z,6.44
2019-03-11T10:21:50.643Z,6.37
2019-03-11T10:31:54.236Z,7.31
2019-03-11T10:41:58.109Z,6.62
2019-03-11T10:52:03.118Z,6.06
2019-03-11T11:02:07.501Z,5.94
2019-03-11T11:12:11.126Z,5.56
2019-03-11T11:22:15.681Z,6.12
2019-03-11T11:32:20.121Z,6.25
2019-03-11T11:42:24.689Z,7.25
2019-03-11T11:52:29.273Z,7.50
2019-03-11T12:02:33.112Z,7.06
2019-03-11T12:12:38.214Z,7.31
2019-03-11T12:22:42.911Z,7.81
2019-03-11T12:32:48.311Z,7.62
2019-03-11T12:42:52.140Z,7.94
2019-03-11T12:52:57.097Z,7.37
2019-03-11T13:03:02.275Z,7.44
2019-03-11T13:13:06.151Z,7.00
2019-03-11T13:23:10.635Z,7.12
2019-03-11T13:33:15.238Z,6.50
2019-03-11T13:43:19.104Z,6.50
2019-03-11T13:53:24.212Z,5.56
2019-03-11T14:03:29.218Z,4.50
2019-03-11T14:13:33.656Z,4.31
2019-03-11T14:23:38.432Z,4.69
2019-03-11T14:33:42.145Z,5.62
2019-03-11T14:43:46.081Z,6.75
2019-03-11T14:53:50.640Z,8.56
2019-03-11T15:03:55.283Z,6.06
2019-03-11T15:13:59.091Z,5.37
2019-03-11T15:24:04.073Z,5.94
2019-03-11T15:34:08.826Z,6.25
2019-03-11T15:44:13.261Z,5.75
2019-03-11T15:54:17.103Z,5.50
2019-03-11T16:04:22.217Z,5.44
2019-03-11T16:14:27.100Z,5.06
2019-03-11T16:24:31.646Z,5.00
2019-03-11T16:34:37.286Z,4.50
2019-03-11T16:44:41.110Z,4.25
2019-03-11T16:54:46.231Z,3.87
2019-03-11T17:04:50.947Z,3.62
2019-03-11T17:14:56.146Z,3.69
2019-03-11T17:25:01.221Z,3.56
2019-03-11T17:35:06.046Z,3.62
2019-03-11T17:45:12.642Z,3.50
2019-03-11T17:55:18.238Z,3.31
2019-03-11T18:05:22.127Z,3.19
2019-03-11T18:15:26.070Z,3.06
2019-03-11T18:25:31.235Z,2.87
2019-03-11T18:35:35.183Z,3.06
2019-03-11T18:45:39.123Z,2.81
2019-03-11T18:55:44.054Z,2.94
2019-03-11T19:05:48.931Z,2.94
2019-03-11T19:15:54.041Z,3.06
2019-03-11T19:25:59.276Z,3.06
2019-03-11T19:36:03.142Z,3.19
2019-03-11T19:46:07.145Z,3.12
2019-03-11T19:56:12.130Z,3.25
2019-03-11T20:06:16.722Z,3.25
2019-03-11T20:16:21.301Z,3.06
2019-03-11T20:26:25.121Z,3.37
2019-03-11T20:36:29.101Z,3.25
2019-03-11T20:46:33.671Z,3.25
2019-03-11T20:56:37.308Z,3.31
2019-03-11T21:06:41.106Z,3.31
2019-03-11T21:16:46.229Z,3.31
2019-03-11T21:26:51.339Z,3.25
2019-03-11T21:36:55.269Z,3.25
2019-03-11T21:46:59.474Z,3.44
2019-03-11T21:57:04.307Z,3.44
2019-03-11T22:07:08.193Z,3.50
2019-03-11T22:17:13.254Z,3.50
2019-03-11T22:27:17.150Z,3.31
2019-03-11T22:37:21.225Z,3.37
2019-03-11T22:47:25.237Z,3.19
2019-03-11T22:57:30.448Z,2.94
2019-03-11T23:07:34.122Z,3.00
2019-03-11T23:17:38.225Z,3.12
2019-03-11T23:27:42.795Z,3.19
2019-03-11T23:37:47.785Z,3.06
2019-03-11T23:47:52.302Z,3.50
2019-03-11T23:57:56.199Z,3.50
